sensor_id;sensor_type;location;lat;lon;timestamp;pressure;altitude;pressure_sealevel;temperature;humidity
72975;BME280;61166;54.228;37.632;2023-04-20T04:27:10;99650.69;;;20.78;nan
72975;BME280;61166;54.228;37.632;2023-04-20T04:29:36;99655.94;;;21.54;nan
72975;BME280;61166;54.228;37.632;2023-04-20T04:32:04;99649.88;;;21.23;nan
72975;BME280;61166;54.228;37.632;2023-04-20T04:34:30;99653.44;;;21.88;nan
72975;BME280;61166;54.228;37.632;2023-04-20T04:36:57;99651.09;;;22.36;nan
72975;BME280;61166;54.228;37.632;2023-04-20T04:39:25;99643.66;;;23.01;nan
72975;BME280;61166;54.228;37.632;2023-04-20T04:46:45;99636.63;;;22.71;nan
72975;BME280;61166;54.228;37.632;2023-04-20T04:49:12;99634.25;;;22.64;nan
72975;BME280;61166;54.228;37.632;2023-04-20T04:54:05;99637.25;;;22.58;nan
72975;BME280;61166;54.228;37.632;2023-04-20T04:56:32;99630.22;;;22.28;nan
72975;BME280;61166;54.228;37.632;2023-04-20T04:58:58;99638.19;;;22.82;nan
72975;BME280;61166;54.228;37.632;2023-04-20T05:01:25;99623.63;;;24.13;nan
72975;BME280;61166;54.228;37.632;2023-04-20T05:03:51;99624.75;;;23.88;nan
72975;BME280;61166;54.228;37.632;2023-04-20T05:06:18;99619.13;;;23.65;nan
72975;BME280;61166;54.228;37.632;2023-04-20T05:08:45;99625.72;;;23.73;nan
72975;BME280;61166;54.228;37.632;2023-04-20T05:11:11;99622.88;;;23.41;nan
72975;BME280;61166;54.228;37.632;2023-04-20T05:13:38;99626.81;;;22.95;nan
72975;BME280;61166;54.228;37.632;2023-04-20T05:16:04;99618.69;;;23.58;nan
72975;BME280;61166;54.228;37.632;2023-04-20T05:18:31;99620.88;;;24.18;nan
72975;BME280;61166;54.228;37.632;2023-04-20T05:20:58;99617.72;;;23.92;nan
72975;BME280;61166;54.228;37.632;2023-04-20T05:23:24;99614.06;;;23.83;nan
72975;BME280;61166;54.228;37.632;2023-04-20T05:25:51;99609.03;;;23.76;nan
72975;BME280;61166;54.228;37.632;2023-04-20T05:28:18;99607.63;;;24.02;nan
72975;BME280;61166;54.228;37.632;2023-04-20T05:30:44;99607.72;;;24.54;nan
72975;BME280;61166;54.228;37.632;2023-04-20T05:33:11;99607.59;;;24.78;nan
72975;BME280;61166;54.228;37.632;2023-04-20T05:35:37;99606.91;;;25.18;nan
72975;BME280;61166;54.228;37.632;2023-04-20T05:38:04;99605.34;;;25.31;nan
72975;BME280;61166;54.228;37.632;2023-04-20T05:40:31;99608.31;;;25.98;nan
72975;BME280;61166;54.228;37.632;2023-04-20T05:42:58;99600.66;;;26.14;nan
72975;BME280;61166;54.228;37.632;2023-04-20T05:45:24;99597.91;;;26.41;nan
72975;BME280;61166;54.228;37.632;2023-04-20T05:47:52;99603.28;;;26.63;nan
72975;BME280;61166;54.228;37.632;2023-04-20T05:50:19;99598.16;;;26.98;nan
72975;BME280;61166;54.228;37.632;2023-04-20T05:52:46;99605.00;;;26.82;nan
72975;BME280;61166;54.228;37.632;2023-04-20T05:55:12;99603.06;;;26.51;nan
72975;BME280;61166;54.228;37.632;2023-04-20T05:57:43;99595.75;;;26.96;nan
72975;BME280;61166;54.228;37.632;2023-04-20T06:00:11;99602.56;;;26.72;nan
72975;BME280;61166;54.228;37.632;2023-04-20T06:02:40;99596.97;;;27.21;nan
72975;BME280;61166;54.228;37.632;2023-04-20T06:05:08;99597.03;;;27.70;nan
72975;BME280;61166;54.228;37.632;2023-04-20T06:07:36;99590.16;;;27.64;nan
72975;BME280;61166;54.228;37.632;2023-04-20T06:10:03;99593.91;;;27.54;nan
72975;BME280;61166;54.228;37.632;2023-04-20T06:12:30;99585.97;;;27.09;nan
72975;BME280;61166;54.228;37.632;2023-04-20T06:14:57;99593.06;;;27.84;nan
72975;BME280;61166;54.228;37.632;2023-04-20T06:17:24;99581.63;;;28.65;nan
72975;BME280;61166;54.228;37.632;2023-04-20T06:19:50;99589.44;;;27.41;nan
72975;BME280;61166;54.228;37.632;2023-04-20T06:22:17;99590.53;;;26.78;nan
72975;BME280;61166;54.228;37.632;2023-04-20T06:24:44;99583.78;;;27.20;nan
72975;BME280;61166;54.228;37.632;2023-04-20T06:27:10;99579.34;;;27.24;nan
72975;BME280;61166;54.228;37.632;2023-04-20T06:29:37;99580.63;;;27.26;nan
72975;BME280;61166;54.228;37.632;2023-04-20T06:32:03;99579.19;;;25.86;nan
72975;BME280;61166;54.228;37.632;2023-04-20T06:34:30;99580.59;;;25.84;nan
72975;BME280;61166;54.228;37.632;2023-04-20T06:36:56;99580.72;;;26.01;nan
72975;BME280;61166;54.228;37.632;2023-04-20T06:39:23;99576.03;;;26.07;nan
72975;BME280;61166;54.228;37.632;2023-04-20T06:41:49;99573.13;;;26.03;nan
72975;BME280;61166;54.228;37.632;2023-04-20T06:44:16;99560.16;;;25.42;nan
72975;BME280;61166;54.228;37.632;2023-04-20T06:46:42;99573.00;;;25.58;nan
72975;BME280;61166;54.228;37.632;2023-04-20T06:51:35;99586.00;;;24.83;nan
72975;BME280;61166;54.228;37.632;2023-04-20T06:58:55;99576.47;;;25.04;nan
72975;BME280;61166;54.228;37.632;2023-04-20T07:11:08;99564.13;;;26.08;nan
72975;BME280;61166;54.228;37.632;2023-04-20T07:13:34;99551.06;;;26.59;nan
72975;BME280;61166;54.228;37.632;2023-04-20T07:18:27;99560.06;;;25.33;nan
72975;BME280;61166;54.228;37.632;2023-04-20T07:23:20;99550.47;;;26.40;nan
72975;BME280;61166;54.228;37.632;2023-04-20T07:25:47;99552.75;;;25.75;nan
72975;BME280;61166;54.228;37.632;2023-04-20T07:28:13;99556.34;;;25.56;nan
72975;BME280;61166;54.228;37.632;2023-04-20T07:30:40;99547.03;;;24.94;nan
72975;BME280;61166;54.228;37.632;2023-04-20T07:33:07;99559.97;;;24.78;nan
72975;BME280;61166;54.228;37.632;2023-04-20T07:35:33;99552.47;;;25.21;nan
72975;BME280;61166;54.228;37.632;2023-04-20T07:38:00;99551.28;;;25.14;nan
72975;BME280;61166;54.228;37.632;2023-04-20T07:45:20;99528.78;;;24.91;nan
72975;BME280;61166;54.228;37.632;2023-04-20T07:47:46;99541.19;;;24.59;nan
72975;BME280;61166;54.228;37.632;2023-04-20T08:48:59;99505.91;;;19.48;nan
72975;BME280;61166;54.228;37.632;2023-04-20T08:51:26;99509.25;;;19.23;nan
72975;BME280;61166;54.228;37.632;2023-04-20T09:53:59;99470.44;;;18.85;nan
72975;BME280;61166;54.228;37.632;2023-04-20T10:08:44;99442.06;;;19.21;nan
72975;BME280;61166;54.228;37.632;2023-04-20T10:18:29;99432.88;;;18.44;nan
72975;BME280;61166;54.228;37.632;2023-04-20T10:21:07;99440.03;;;18.80;nan
72975;BME280;61166;54.228;37.632;2023-04-20T10:23:33;99433.13;;;18.85;nan
72975;BME280;61166;54.228;37.632;2023-04-20T10:26:00;99437.38;;;18.86;nan
72975;BME280;61166;54.228;37.632;2023-04-20T10:28:40;99409.00;;;19.27;nan
72975;BME280;61166;54.228;37.632;2023-04-20T10:31:07;99442.25;;;18.99;nan
72975;BME280;61166;54.228;37.632;2023-04-20T10:33:34;99432.59;;;18.88;nan
72975;BME280;61166;54.228;37.632;2023-04-20T10:36:01;99447.47;;;18.78;nan
72975;BME280;61166;54.228;37.632;2023-04-20T10:38:31;99438.19;;;18.44;nan
72975;BME280;61166;54.228;37.632;2023-04-20T10:41:11;99429.66;;;18.42;nan
72975;BME280;61166;54.228;37.632;2023-04-20T10:43:38;99433.31;;;18.31;nan
72975;BME280;61166;54.228;37.632;2023-04-20T10:48:54;99422.56;;;18.21;nan
72975;BME280;61166;54.228;37.632;2023-04-20T10:51:22;99422.56;;;18.21;nan
72975;BME280;61166;54.228;37.632;2023-04-20T10:56:26;99418.78;;;18.11;nan
72975;BME280;61166;54.228;37.632;2023-04-20T10:58:52;99402.81;;;18.11;nan
72975;BME280;61166;54.228;37.632;2023-04-20T11:01:19;99419.00;;;18.05;nan
72975;BME280;61166;54.228;37.632;2023-04-20T11:03:49;99416.59;;;18.03;nan
72975;BME280;61166;54.228;37.632;2023-04-20T11:06:16;99409.25;;;18.21;nan
72975;BME280;61166;54.228;37.632;2023-04-20T11:08:43;99395.09;;;18.57;nan
72975;BME280;61166;54.228;37.632;2023-04-20T11:11:20;99393.94;;;18.80;nan
72975;BME280;61166;54.228;37.632;2023-04-20T11:13:47;99400.97;;;18.59;nan
72975;BME280;61166;54.228;37.632;2023-04-20T11:16:15;99403.53;;;18.39;nan
72975;BME280;61166;54.228;37.632;2023-04-20T11:18:48;99400.03;;;17.96;nan
72975;BME280;61166;54.228;37.632;2023-04-20T11:21:14;99391.94;;;17.81;nan
72975;BME280;61166;54.228;37.632;2023-04-20T11:23:41;99392.81;;;17.92;nan
72975;BME280;61166;54.228;37.632;2023-04-20T11:26:08;99390.44;;;17.95;nan
72975;BME280;61166;54.228;37.632;2023-04-20T11:28:34;99381.50;;;18.11;nan
72975;BME280;61166;54.228;37.632;2023-04-20T11:31:01;99375.16;;;18.18;nan
72975;BME280;61166;54.228;37.632;2023-04-20T11:33:29;99374.72;;;18.31;nan
72975;BME280;61166;54.228;37.632;2023-04-20T11:35:57;99370.66;;;18.65;nan
72975;BME280;61166;54.228;37.632;2023-04-20T11:38:31;99372.16;;;18.98;nan
72975;BME280;61166;54.228;37.632;2023-04-20T11:40:58;99363.41;;;19.23;nan
72975;BME280;61166;54.228;37.632;2023-04-20T11:48:19;99366.56;;;19.10;nan
72975;BME280;61166;54.228;37.632;2023-04-20T11:50:45;99350.41;;;18.64;nan
72975;BME280;61166;54.228;37.632;2023-04-20T11:53:12;99363.75;;;18.64;nan
72975;BME280;61166;54.228;37.632;2023-04-20T11:55:39;99342.44;;;18.64;nan
72975;BME280;61166;54.228;37.632;2023-04-20T12:00:33;99340.19;;;18.41;nan
72975;BME280;61166;54.228;37.632;2023-04-20T12:05:27;99314.31;;;18.36;nan
72975;BME280;61166;54.228;37.632;2023-04-20T12:07:54;99351.56;;;18.31;nan
72975;BME280;61166;54.228;37.632;2023-04-20T12:10:20;99343.59;;;18.31;nan
72975;BME280;61166;54.228;37.632;2023-04-20T12:12:47;99348.91;;;18.31;nan
72975;BME280;61166;54.228;37.632;2023-04-20T12:22:33;99315.25;;;18.15;nan
72975;BME280;61166;54.228;37.632;2023-04-20T12:25:00;99321.66;;;18.14;nan
72975;BME280;61166;54.228;37.632;2023-04-20T12:27:27;99301.72;;;18.22;nan
72975;BME280;61166;54.228;37.632;2023-04-20T12:29:53;99325.69;;;18.22;nan
72975;BME280;61166;54.228;37.632;2023-04-20T12:32:20;99316.69;;;18.33;nan
72975;BME280;61166;54.228;37.632;2023-04-20T12:34:46;99318.66;;;18.58;nan
72975;BME280;61166;54.228;37.632;2023-04-20T12:37:13;99305.06;;;18.54;nan
72975;BME280;61166;54.228;37.632;2023-04-20T12:39:39;99314.50;;;18.72;nan
72975;BME280;61166;54.228;37.632;2023-04-20T12:42:06;99305.75;;;18.92;nan
72975;BME280;61166;54.228;37.632;2023-04-20T12:44:32;99293.25;;;19.02;nan
72975;BME280;61166;54.228;37.632;2023-04-20T12:46:59;99297.28;;;19.05;nan
72975;BME280;61166;54.228;37.632;2023-04-20T12:49:25;99287.91;;;18.87;nan
72975;BME280;61166;54.228;37.632;2023-04-20T12:51:52;99291.31;;;18.72;nan
72975;BME280;61166;54.228;37.632;2023-04-20T12:54:19;99293.44;;;18.70;nan
72975;BME280;61166;54.228;37.632;2023-04-20T12:56:46;99317.03;;;18.46;nan
72975;BME280;61166;54.228;37.632;2023-04-20T12:59:12;99297.81;;;18.39;nan
72975;BME280;61166;54.228;37.632;2023-04-20T13:01:39;99299.38;;;18.30;nan
72975;BME280;61166;54.228;37.632;2023-04-20T13:04:05;99299.38;;;18.30;nan
72975;BME280;61166;54.228;37.632;2023-04-20T13:06:32;99290.03;;;18.23;nan
72975;BME280;61166;54.228;37.632;2023-04-20T13:08:59;99298.03;;;18.28;nan
72975;BME280;61166;54.228;37.632;2023-04-20T13:11:26;99284.69;;;18.23;nan
72975;BME280;61166;54.228;37.632;2023-04-20T13:13:52;99285.53;;;18.28;nan
72975;BME280;61166;54.228;37.632;2023-04-20T13:16:19;99281.19;;;18.12;nan
72975;BME280;61166;54.228;37.632;2023-04-20T13:18:45;99279.34;;;18.18;nan
72975;BME280;61166;54.228;37.632;2023-04-20T13:21:12;99275.00;;;18.01;nan
72975;BME280;61166;54.228;37.632;2023-04-20T13:23:38;99271.28;;;18.02;nan
72975;BME280;61166;54.228;37.632;2023-04-20T13:26:06;99267.00;;;18.01;nan
72975;BME280;61166;54.228;37.632;2023-04-20T13:28:32;99264.28;;;17.91;nan
72975;BME280;61166;54.228;37.632;2023-04-20T13:30:59;99271.50;;;17.96;nan
72975;BME280;61166;54.228;37.632;2023-04-20T13:33:25;99261.13;;;17.99;nan
72975;BME280;61166;54.228;37.632;2023-04-20T13:35:52;99271.75;;;17.89;nan
72975;BME280;61166;54.228;37.632;2023-04-20T13:38:18;99263.50;;;17.91;nan
72975;BME280;61166;54.228;37.632;2023-04-20T13:40:45;99256.03;;;17.93;nan
72975;BME280;61166;54.228;37.632;2023-04-20T13:43:12;99260.03;;;17.90;nan
72975;BME280;61166;54.228;37.632;2023-04-20T13:45:40;99264.53;;;17.85;nan
72975;BME280;61166;54.228;37.632;2023-04-20T13:48:07;99256.75;;;17.73;nan
72975;BME280;61166;54.228;37.632;2023-04-20T13:50:33;99254.13;;;17.78;nan
72975;BME280;61166;54.228;37.632;2023-04-20T13:53:00;99256.16;;;17.66;nan
72975;BME280;61166;54.228;37.632;2023-04-20T13:55:26;99247.66;;;17.69;nan
72975;BME280;61166;54.228;37.632;2023-04-20T13:57:53;99254.41;;;17.49;nan
72975;BME280;61166;54.228;37.632;2023-04-20T14:00:20;99238.66;;;17.43;nan
72975;BME280;61166;54.228;37.632;2023-04-20T14:05:13;99245.50;;;17.29;nan
72975;BME280;61166;54.228;37.632;2023-04-20T14:07:40;99250.06;;;17.38;nan
72975;BME280;61166;54.228;37.632;2023-04-20T14:10:07;99229.56;;;17.34;nan
72975;BME280;61166;54.228;37.632;2023-04-20T14:12:33;99234.06;;;17.28;nan
72975;BME280;61166;54.228;37.632;2023-04-20T14:15:00;99241.47;;;17.26;nan
72975;BME280;61166;54.228;37.632;2023-04-20T14:17:27;99231.69;;;17.37;nan
72975;BME280;61166;54.228;37.632;2023-04-20T14:19:53;99238.13;;;17.41;nan
72975;BME280;61166;54.228;37.632;2023-04-20T14:22:20;99232.50;;;17.37;nan
72975;BME280;61166;54.228;37.632;2023-04-20T14:29:39;99251.25;;;17.21;nan
72975;BME280;61166;54.228;37.632;2023-04-20T14:32:06;99240.69;;;17.26;nan
72975;BME280;61166;54.228;37.632;2023-04-20T14:34:32;99255.63;;;17.05;nan
